Time;durP1;ratioP1;P1;durP2;ratioP2;P2;SDS_P1;SDS_P2;PMS_P1;PMS_P2;Temp;Humidity;BMP_temperature;BMP_pressure;BME280_temperature;BME280_humidity;BME280_pressure;Samples;Min_cycle;Max_cycle;Signal;HPM_P1;HPM_P2
2023/10/20 00:01:32;;;;;;;4.30;1.50;;;;;;;11.15;75.04;98941.52;79533;1298;3013571;-63
2023/10/20 00:03:59;;;;;;;3.90;1.70;;;;;;;11.18;74.91;98941.13;79441;1294;3011961;-67
2023/10/20 00:06:27;;;;;;;6.30;1.90;;;;;;;11.06;75.06;98933.25;78240;1295;3056051;-64
2023/10/20 00:08:53;;;;;;;2.80;1.80;;;;;;;10.93;75.59;98924.86;79438;1296;3013170;-65
2023/10/20 00:11:20;;;;;;;3.70;1.70;;;;;;;10.77;76.44;98918.98;79445;1296;3013061;-62
2023/10/20 00:13:48;;;;;;;4.80;1.60;;;;;;;10.65;76.93;98912.98;78202;1298;3026721;-62
2023/10/20 00:16:23;;;;;;;3.70;1.60;;;;;;;10.63;76.99;98912.41;79389;1298;3020648;-63
2023/10/20 00:18:51;;;;;;;3.70;1.50;;;;;;;10.57;77.62;98910.89;78287;1298;3051332;-66
2023/10/20 00:21:18;;;;;;;4.50;1.50;;;;;;;11.04;76.05;98908.64;79360;1295;3012741;-68
2023/10/20 00:23:45;;;;;;;5.60;1.90;;;;;;;11.13;75.25;98916.76;79443;1295;3011354;-66
2023/10/20 00:26:13;;;;;;;3.50;1.70;;;;;;;11.13;75.24;98913.43;76593;1296;3119858;-66
2023/10/20 00:28:40;;;;;;;4.20;2.30;;;;;;;10.94;75.59;98910.08;79442;1298;3013661;-63
2023/10/20 00:31:06;;;;;;;5.60;2.00;;;;;;;10.68;76.83;98911.87;79334;1296;3012341;-65
2023/10/20 00:33:34;;;;;;;4.90;1.90;;;;;;;10.57;77.48;98905.62;78166;1298;3026047;-70
2023/10/20 00:36:01;;;;;;;4.70;1.70;;;;;;;10.57;77.79;98901.46;79383;1298;3013393;-63
2023/10/20 00:38:28;;;;;;;3.40;1.80;;;;;;;10.48;78.13;98896.42;79412;1298;3013186;-69
2023/10/20 00:40:57;;;;;;;2.20;1.40;;;;;;;10.52;78.02;98898.96;78294;1298;3050438;-64
2023/10/20 00:43:35;;;;;;;9.70;1.50;;;;;;;10.87;77.10;98895.53;79480;1298;3013744;-69
2023/10/20 00:46:07;;;;;;;4.30;1.80;;;;;;;11.20;75.55;98891.19;78201;1298;3068968;-66
2023/10/20 00:48:37;;;;;;;6.10;2.20;;;;;;;11.12;75.74;98889.88;79545;1295;3011510;-63
2023/10/20 00:51:06;;;;;;;6.40;2.10;;;;;;;11.06;75.91;98891.70;78277;1298;3058091;-70
2023/10/20 00:53:33;;;;;;;8.60;2.30;;;;;;;10.95;76.02;98892.82;79594;1295;3012770;-67
2023/10/20 00:56:01;;;;;;;8.40;2.40;;;;;;;10.74;77.45;98892.21;79206;1295;3011914;-69
2023/10/20 00:58:29;;;;;;;5.40;1.90;;;;;;;10.61;77.81;98888.73;78326;1298;3053421;-68
2023/10/20 01:00:55;;;;;;;7.50;2.10;;;;;;;10.60;77.88;98887.02;79330;1295;3013433;-64
2023/10/20 01:03:22;;;;;;;5.20;1.50;;;;;;;10.57;78.34;98880.38;79497;1298;3011946;-65
2023/10/20 01:05:50;;;;;;;4.80;1.80;;;;;;;10.96;77.43;98875.41;78291;1298;3026104;-67
2023/10/20 01:08:16;;;;;;;4.50;1.80;;;;;;;11.08;76.65;98876.84;79276;1296;3018872;-67
2023/10/20 01:10:43;;;;;;;3.70;1.80;;;;;;;11.03;76.77;98878.23;79396;1295;3011780;-66
2023/10/20 01:13:11;;;;;;;4.80;2.10;;;;;;;11.02;76.80;98873.40;78304;1298;3028376;-66
2023/10/20 01:15:37;;;;;;;5.90;2.50;;;;;;;10.71;77.92;98875.92;79513;1298;3013554;-65
2023/10/20 01:18:04;;;;;;;8.40;2.50;;;;;;;10.68;78.57;98874.25;79380;1298;3011678;-64
2023/10/20 01:20:32;;;;;;;10.80;2.20;;;;;;;10.68;78.56;98866.49;78195;1298;3027426;-68
2023/10/20 01:23:01;;;;;;;6.90;1.90;;;;;;;10.66;78.76;98863.90;79423;1300;3012761;-68
2023/10/20 01:25:27;;;;;;;4.80;1.60;;;;;;;10.63;79.29;98865.16;79389;1295;3011665;-67
2023/10/20 01:27:55;;;;;;;4.80;1.70;;;;;;;11.03;78.16;98867.54;78215;1300;3053151;-69
2023/10/20 01:30:22;;;;;;;8.50;1.90;;;;;;;11.34;76.55;98867.08;79521;1298;3013276;-68
2023/10/20 01:32:48;;;;;;;5.80;2.00;;;;;;;11.19;76.82;98869.91;79578;1298;3011602;-66
2023/10/20 01:35:16;;;;;;;6.80;2.10;;;;;;;11.19;76.96;98872.30;78228;1298;3028413;-65
2023/10/20 01:37:43;;;;;;;7.30;2.60;;;;;;;11.07;77.33;98869.59;79525;1294;3019319;-66
2023/10/20 01:40:12;;;;;;;8.10;3.10;;;;;;;10.94;77.86;98868.22;79420;1298;3011743;-70
2023/10/20 01:42:40;;;;;;;9.00;3.30;;;;;;;10.82;78.55;98876.08;78222;1298;3051760;-64
2023/10/20 01:45:09;;;;;;;9.20;3.50;;;;;;;10.70;78.95;98870.26;79422;1298;3013920;-62
2023/10/20 01:49:49;;;;;;;8.40;2.50;;;;;;;11.01;77.57;98864.89;79981;1301;3013794;-65
2023/10/20 01:52:16;;;;;;;8.20;1.70;;;;;;;11.25;75.37;98862.96;78961;1301;3013554;-65
2023/10/20 01:54:42;;;;;;;8.30;2.60;;;;;;;11.36;74.47;98860.23;78983;1301;3013219;-66
2023/10/20 01:57:12;;;;;;;7.50;1.80;;;;;;;11.19;74.37;98859.73;77868;1306;3052973;-68
2023/10/20 01:59:38;;;;;;;8.50;1.70;;;;;;;11.07;74.33;98859.52;79163;1306;3013283;-67
2023/10/20 02:02:05;;;;;;;8.60;2.00;;;;;;;10.99;74.20;98859.57;76464;1305;3383975;-66
2023/10/20 02:04:33;;;;;;;4.50;1.80;;;;;;;10.86;74.33;98858.45;78071;1302;3027214;-64
2023/10/20 02:06:59;;;;;;;4.00;1.70;;;;;;;10.79;74.16;98858.38;79199;1302;3013688;-70
2023/10/20 02:09:26;;;;;;;8.60;1.70;;;;;;;10.70;74.35;98860.94;79343;1297;3011445;-64
2023/10/20 02:11:57;;;;;;;6.70;1.80;;;;;;;10.75;74.40;98857.06;78062;1302;3028177;-67
2023/10/20 02:14:26;;;;;;;7.70;2.10;;;;;;;10.63;74.32;98857.45;79410;1297;3013027;-64
2023/10/20 02:16:56;;;;;;;9.30;1.90;;;;;;;10.53;74.37;98856.02;77993;1301;3050353;-68
2023/10/20 02:19:23;;;;;;;4.40;2.00;;;;;;;10.61;73.87;98852.80;79157;1297;3014581;-68
2023/10/20 02:21:51;;;;;;;3.90;1.40;;;;;;;10.59;73.76;98850.67;79175;1297;3011744;-66
2023/10/20 02:24:18;;;;;;;4.90;1.60;;;;;;;10.98;71.60;98856.31;77972;1300;3048759;-69
2023/10/20 02:26:45;;;;;;;7.60;1.90;;;;;;;11.40;69.80;98852.92;79411;1301;3013235;-64
2023/10/20 02:29:12;;;;;;;3.60;1.60;;;;;;;11.33;69.64;98856.30;79248;1303;3011254;-66
2023/10/20 02:31:40;;;;;;;4.40;1.40;;;;;;;11.35;68.84;98848.58;78058;1297;3028662;-64
2023/10/20 02:34:07;;;;;;;5.70;1.80;;;;;;;11.04;69.49;98853.09;79207;1297;3018583;-66
2023/10/20 02:36:34;;;;;;;4.30;1.60;;;;;;;10.93;69.89;98844.08;79189;1297;3013588;-68
2023/10/20 02:39:02;;;;;;;4.30;1.90;;;;;;;10.86;69.49;98847.05;78012;1303;3028411;-65
2023/10/20 02:41:29;;;;;;;4.90;1.60;;;;;;;10.81;69.63;98851.40;79376;1302;3013159;-64
2023/10/20 02:43:55;;;;;;;2.10;1.70;;;;;;;10.70;69.92;98844.65;79187;1298;3011788;-67
2023/10/20 02:46:23;;;;;;;6.40;1.60;;;;;;;10.59;70.14;98837.02;78017;1298;3029012;-71
2023/10/20 02:48:50;;;;;;;2.90;1.50;;;;;;;10.56;70.16;98832.18;79300;1297;3013207;-67
2023/10/20 02:51:17;;;;;;;3.20;1.80;;;;;;;10.52;69.90;98827.14;79270;1298;3011736;-71
2023/10/20 02:53:47;;;;;;;3.80;2.10;;;;;;;10.48;69.86;98833.77;78001;1303;3048696;-64
2023/10/20 02:56:17;;;;;;;5.80;1.90;;;;;;;10.42;70.05;98817.38;79352;1298;3013162;-66
2023/10/20 02:58:45;;;;;;;4.90;1.70;;;;;;;10.42;69.72;98808.79;78197;1300;3052653;-69
2023/10/20 03:01:13;;;;;;;3.60;1.70;;;;;;;10.40;69.60;98805.81;79259;1300;3012894;-66
2023/10/20 03:03:40;;;;;;;5.60;1.80;;;;;;;10.35;69.54;98798.90;79451;1297;3011577;-64
2023/10/20 03:06:08;;;;;;;3.30;1.70;;;;;;;10.33;69.24;98801.04;78109;1297;3049874;-65
2023/10/20 03:08:37;;;;;;;3.50;1.90;;;;;;;10.29;68.98;98800.24;79280;1300;3012728;-64
2023/10/20 03:11:08;;;;;;;2.30;1.70;;;;;;;10.14;68.85;98802.52;78759;1300;3012987;-66
2023/10/20 03:13:34;;;;;;;3.50;2.00;;;;;;;10.12;68.83;98797.05;79399;1297;3013824;-68
2023/10/20 03:16:01;;;;;;;3.90;1.80;;;;;;;10.06;69.04;98791.84;79343;1303;3011815;-67
2023/10/20 03:18:29;;;;;;;2.60;1.70;;;;;;;10.14;68.95;98789.01;77993;1302;3050595;-67
2023/10/20 03:21:02;;;;;;;4.50;1.70;;;;;;;10.05;69.62;98792.45;79275;1298;3013431;-65
2023/10/20 03:23:30;;;;;;;6.40;1.90;;;;;;;10.06;69.39;98794.80;80639;1297;3052924;-67
2023/10/20 03:25:56;;;;;;;3.90;2.20;;;;;;;10.02;69.56;98796.13;81894;1297;3018240;-67
2023/10/20 03:28:23;;;;;;;4.20;1.80;;;;;;;10.02;69.63;98791.61;81925;1294;3011400;-68
2023/10/20 03:30:51;;;;;;;7.10;2.20;;;;;;;10.02;69.98;98791.60;80732;1297;3026463;-66
2023/10/20 03:33:17;;;;;;;3.90;1.90;;;;;;;9.97;70.13;98786.14;82034;1294;3018322;-68
2023/10/20 03:35:44;;;;;;;3.50;2.10;;;;;;;10.02;70.10;98788.09;82005;1294;3011468;-68
2023/10/20 03:38:11;;;;;;;6.00;2.10;;;;;;;9.95;70.60;98781.57;80756;1294;3026421;-68
2023/10/20 03:40:40;;;;;;;7.10;2.10;;;;;;;9.94;70.84;98774.80;82004;1297;3013097;-70
2023/10/20 03:43:08;;;;;;;3.60;2.00;;;;;;;9.90;71.27;98776.47;82009;1296;3011380;-67
2023/10/20 03:45:41;;;;;;;5.70;2.40;;;;;;;9.86;71.70;98773.25;80727;1294;3068323;-66
2023/10/20 03:48:09;;;;;;;4.20;2.00;;;;;;;9.94;71.82;98766.92;81974;1299;3011621;-65
2023/10/20 03:50:38;;;;;;;6.60;1.90;;;;;;;9.95;71.80;98765.11;80708;1294;3054624;-63
2023/10/20 03:53:05;;;;;;;5.70;1.90;;;;;;;9.95;71.89;98765.48;82001;1294;3011229;-65
2023/10/20 03:55:33;;;;;;;5.90;1.80;;;;;;;9.96;71.87;98753.33;81998;1294;3011358;-65
2023/10/20 03:58:02;;;;;;;3.30;2.00;;;;;;;10.01;71.94;98760.16;80766;1295;3053260;-63
2023/10/20 04:00:29;;;;;;;4.10;2.10;;;;;;;9.96;72.36;98771.33;82019;1295;3013591;-71
2023/10/20 04:02:56;;;;;;;8.30;1.90;;;;;;;9.94;72.52;98767.30;81980;1294;3011260;-64
2023/10/20 04:05:25;;;;;;;5.10;2.20;;;;;;;9.90;72.98;98760.91;80738;1295;3055210;-68
2023/10/20 04:07:52;;;;;;;3.20;1.90;;;;;;;9.91;73.23;98765.04;82045;1294;3013019;-65
2023/10/20 04:10:19;;;;;;;5.40;1.70;;;;;;;9.91;73.61;98769.08;81984;1296;3011401;-65
2023/10/20 04:12:47;;;;;;;3.30;1.70;;;;;;;10.41;72.65;98762.45;80655;1297;3053207;-64
2023/10/20 04:15:21;;;;;;;3.90;1.90;;;;;;;10.75;71.61;98763.38;81949;1296;3018612;-66
2023/10/20 04:17:52;;;;;;;6.70;2.10;;;;;;;10.67;71.90;98765.77;80682;1296;3051014;-66
2023/10/20 04:20:23;;;;;;;5.80;2.60;;;;;;;10.48;73.10;98758.30;81903;1296;3011623;-71
2023/10/20 04:22:51;;;;;;;4.60;2.20;;;;;;;10.39;73.48;98758.11;80651;1296;3048420;-66
2023/10/20 04:25:22;;;;;;;6.90;2.40;;;;;;;10.31;73.70;98761.23;81931;1296;3018664;-65
2023/10/20 04:28:03;;;;;;;2.90;2.00;;;;;;;10.21;74.20;98756.54;80633;1296;3052538;-67
2023/10/20 04:47:25;;;;;;;5.40;2.20;;;;;;;10.05;74.18;98772.81;82023;1296;3012406;-66
2023/10/20 04:55:15;;;;;;;5.10;1.90;;;;;;;11.19;70.91;98768.45;81959;1295;3018202;-65
2023/10/20 04:58:07;;;;;;;6.20;2.00;;;;;;;11.03;70.88;98770.66;80724;1295;3049455;-69
2023/10/20 05:00:38;;;;;;;4.20;1.70;;;;;;;10.71;72.64;98772.05;80684;1297;3054237;-70
2023/10/20 05:08:23;;;;;;;3.10;1.80;;;;;;;10.55;74.32;98758.14;80733;1297;3052720;-66
2023/10/20 05:10:50;;;;;;;5.00;1.70;;;;;;;10.47;75.20;98764.50;81969;1300;3011347;-68
2023/10/20 05:13:19;;;;;;;3.20;1.70;;;;;;;10.49;75.58;98760.70;81463;1296;3011438;-67
2023/10/20 05:15:46;;;;;;;5.50;2.10;;;;;;;10.43;76.19;98759.19;81956;1296;3018375;-66
2023/10/20 05:18:12;;;;;;;4.90;1.70;;;;;;;10.36;77.07;98761.91;81962;1295;3011020;-64
2023/10/20 05:20:41;;;;;;;3.50;1.60;;;;;;;10.94;75.43;98759.16;80736;1294;3025082;-66
2023/10/20 05:23:08;;;;;;;5.90;2.10;;;;;;;11.35;73.74;98764.64;82009;1297;3011487;-69
2023/10/20 05:25:34;;;;;;;11.20;2.10;;;;;;;11.16;74.59;98763.54;82023;1294;3011333;-66
2023/10/20 05:28:02;;;;;;;4.20;1.90;;;;;;;10.99;75.64;98760.45;80736;1295;3050117;-66
2023/10/20 05:30:29;;;;;;;3.30;1.80;;;;;;;11.02;75.63;98755.27;82052;1295;3017960;-65
2023/10/20 05:32:55;;;;;;;5.50;2.00;;;;;;;10.89;76.05;98759.02;81965;1295;3011344;-65
2023/10/20 05:35:23;;;;;;;5.20;2.20;;;;;;;10.95;76.29;98753.89;80750;1294;3026575;-70
2023/10/20 05:37:50;;;;;;;5.30;2.10;;;;;;;10.88;76.80;98757.42;82001;1295;3017930;-69
2023/10/20 05:40:16;;;;;;;6.00;1.60;;;;;;;10.72;78.37;98757.27;81988;1297;3011337;-66
2023/10/20 05:42:44;;;;;;;8.40;1.50;;;;;;;11.20;76.99;98748.70;80754;1295;3025950;-66
2023/10/20 05:45:17;;;;;;;3.50;1.70;;;;;;;11.39;76.31;98744.50;82009;1295;3018253;-66
2023/10/20 05:47:45;;;;;;;7.60;2.20;;;;;;;11.47;75.97;98743.73;80729;1295;3053241;-66
2023/10/20 05:50:11;;;;;;;10.00;2.60;;;;;;;11.36;76.05;98738.26;82049;1297;3012820;-65
2023/10/20 05:52:39;;;;;;;5.50;2.40;;;;;;;11.20;76.64;98742.08;81952;1297;3011356;-66
2023/10/20 05:55:08;;;;;;;4.70;2.30;;;;;;;11.24;76.68;98740.17;80715;1297;3067657;-65
2023/10/20 05:57:34;;;;;;;3.80;2.00;;;;;;;11.12;77.18;98736.52;82021;1296;3012786;-66
2023/10/20 06:00:03;;;;;;;4.20;1.80;;;;;;;10.98;77.78;98737.02;82012;1295;3011365;-68
2023/10/20 06:02:34;;;;;;;4.40;1.40;;;;;;;11.01;78.03;98734.00;80736;1296;3053036;-66
2023/10/20 06:05:02;;;;;;;2.50;1.10;;;;;;;11.28;76.84;98730.42;82008;1297;3012522;-70
2023/10/20 06:07:29;;;;;;;6.10;1.60;;;;;;;11.47;75.69;98730.39;82016;1296;3011219;-65
2023/10/20 06:09:57;;;;;;;3.60;1.70;;;;;;;11.48;75.45;98723.84;80713;1296;3068745;-70
2023/10/20 06:12:23;;;;;;;4.30;1.90;;;;;;;11.59;75.22;98715.29;82003;1296;3012691;-70
2023/10/20 06:14:50;;;;;;;4.70;1.90;;;;;;;11.58;75.04;98708.88;81999;1296;3011291;-63
2023/10/20 06:17:18;;;;;;;8.10;2.00;;;;;;;11.34;76.04;98716.49;80705;1297;3026382;-63
2023/10/20 06:19:46;;;;;;;4.80;1.80;;;;;;;11.25;76.84;98708.20;82010;1296;3012896;-67
2023/10/20 06:22:13;;;;;;;6.00;2.00;;;;;;;11.10;77.56;98707.02;81989;1297;3011298;-67
2023/10/20 06:24:40;;;;;;;6.20;1.60;;;;;;;11.13;78.02;98697.71;80694;1295;3067969;-68
2023/10/20 06:27:07;;;;;;;6.00;1.90;;;;;;;11.49;76.91;98688.10;81996;1295;3019408;-66
2023/10/20 06:34:48;;;;;;;5.30;1.70;;;;;;;11.79;76.12;98689.35;80781;1294;3048424;-66
2023/10/20 06:37:28;;;;;;;6.30;2.10;;;;;;;11.68;77.04;98686.18;82059;1297;3012818;-66
2023/10/20 06:39:56;;;;;;;8.60;3.40;;;;;;;11.64;77.56;98682.95;80721;1295;3069575;-68
2023/10/20 06:42:24;;;;;;;6.70;2.50;;;;;;;11.64;77.79;98678.73;82088;1294;3013173;-67
2023/10/20 06:44:51;;;;;;;5.60;1.90;;;;;;;11.65;77.81;98672.35;82040;1294;3011636;-67
2023/10/20 06:47:20;;;;;;;4.90;1.60;;;;;;;11.58;78.65;98676.94;80777;1298;3052655;-64
2023/10/20 06:49:47;;;;;;;6.50;1.40;;;;;;;11.98;77.68;98687.36;82054;1298;3012966;-70
2023/10/20 06:52:19;;;;;;;8.80;2.00;;;;;;;12.21;76.11;98688.23;82066;1295;3011522;-67
2023/10/20 06:54:48;;;;;;;7.00;1.80;;;;;;;12.12;77.31;98698.95;80753;1294;3067825;-66
2023/10/20 06:57:15;;;;;;;13.70;2.00;;;;;;;12.06;77.20;98685.29;82007;1294;3011225;-65
2023/10/20 06:59:42;;;;;;;8.60;2.00;;;;;;;12.03;78.06;98684.86;82058;1294;3011395;-65
2023/10/20 07:02:10;;;;;;;10.50;2.10;;;;;;;11.99;78.48;98693.05;80751;1295;3054028;-67
2023/10/20 07:04:37;;;;;;;13.60;2.70;;;;;;;11.99;78.99;98688.14;82054;1295;3012732;-68
2023/10/20 07:07:09;;;;;;;4.30;1.80;;;;;;;12.04;78.56;98685.15;82066;1294;3011375;-67
2023/10/20 07:09:37;;;;;;;10.70;2.00;;;;;;;12.46;77.57;98675.86;80774;1295;3069763;-68
2023/10/20 07:12:06;;;;;;;10.50;2.80;;;;;;;12.77;76.00;98674.53;82063;1293;3013196;-70
2023/10/20 07:14:35;;;;;;;9.20;2.40;;;;;;;12.98;74.90;98670.72;81518;1294;3011326;-65
2023/10/20 07:17:05;;;;;;;6.00;1.90;;;;;;;12.73;75.49;98673.98;82049;1295;3011413;-67
2023/10/20 07:19:33;;;;;;;7.50;1.90;;;;;;;12.68;75.72;98663.53;80776;1295;3050134;-70
2023/10/20 07:22:02;;;;;;;8.60;1.70;;;;;;;12.51;75.95;98660.48;82047;1295;3012543;-67
2023/10/20 07:24:29;;;;;;;11.10;2.80;;;;;;;12.63;75.47;98656.61;82028;1298;3011413;-71
2023/10/20 07:26:57;;;;;;;6.50;1.90;;;;;;;12.62;74.83;98644.13;80786;1295;3051086;-69
2023/10/20 07:29:24;;;;;;;6.90;2.00;;;;;;;12.74;74.59;98643.16;82051;1294;3018716;-65
2023/10/20 07:31:51;;;;;;;6.20;1.80;;;;;;;12.75;73.96;98649.60;82016;1296;3011592;-68
2023/10/20 07:34:19;;;;;;;4.90;1.80;;;;;;;12.71;73.74;98659.89;80752;1296;3026273;-65
2023/10/20 07:36:45;;;;;;;8.00;1.70;;;;;;;12.75;73.45;98647.84;82099;1295;3012489;-67
2023/10/20 07:39:16;;;;;;;7.70;1.90;;;;;;;12.74;72.99;98645.08;82013;1294;3011298;-67
2023/10/20 07:41:44;;;;;;;6.50;1.90;;;;;;;12.77;72.73;98641.55;80806;1294;3052188;-69
2023/10/20 07:44:15;;;;;;;3.70;2.10;;;;;;;12.81;72.31;98633.11;82095;1294;3018063;-66
2023/10/20 07:46:43;;;;;;;7.30;1.60;;;;;;;12.97;72.01;98640.23;80769;1294;3054323;-65
2023/10/20 07:49:11;;;;;;;5.70;1.70;;;;;;;12.94;71.84;98641.50;82028;1298;3018112;-65
2023/10/20 07:51:39;;;;;;;6.90;1.90;;;;;;;13.05;71.69;98627.42;82040;1295;3011527;-68
2023/10/20 07:54:08;;;;;;;4.00;1.40;;;;;;;13.09;70.78;98626.23;80807;1294;3067992;-66
2023/10/20 07:56:35;;;;;;;6.80;1.60;;;;;;;13.10;70.93;98628.61;82086;1295;3013343;-66
2023/10/20 07:59:01;;;;;;;4.60;1.80;;;;;;;13.12;71.22;98622.66;82034;1294;3011347;-70
2023/10/20 08:01:29;;;;;;;7.80;2.20;;;;;;;13.20;70.56;98630.38;80762;1294;3052524;-67
2023/10/20 08:03:56;;;;;;;8.10;3.50;;;;;;;13.31;70.67;98622.98;82033;1298;3018632;-68
2023/10/20 08:06:22;;;;;;;16.00;6.80;;;;;;;13.24;70.82;98640.41;82051;1297;3011404;-69
2023/10/20 08:08:50;;;;;;;12.50;5.80;;;;;;;13.25;71.06;98641.70;80765;1294;3026519;-65
2023/10/20 08:11:17;;;;;;;22.60;4.40;;;;;;;13.31;71.08;98626.63;82059;1295;3012405;-66
2023/10/20 08:13:50;;;;;;;14.00;4.70;;;;;;;13.27;71.21;98626.43;82020;1294;3011541;-69
2023/10/20 08:16:18;;;;;;;13.10;5.60;;;;;;;13.23;71.63;98628.93;80760;1294;3051594;-65
2023/10/20 08:18:45;;;;;;;11.40;3.90;;;;;;;13.25;71.82;98617.84;82043;1298;3012722;-68
2023/10/20 08:21:12;;;;;;;9.80;3.10;;;;;;;13.30;72.05;98611.75;82056;1298;3011468;-65
2023/10/20 08:23:40;;;;;;;9.50;3.50;;;;;;;13.37;72.11;98605.75;80760;1294;3068076;-69
2023/10/20 08:26:14;;;;;;;9.90;2.20;;;;;;;13.28;72.50;98613.19;82064;1295;3011359;-68
2023/10/20 08:28:42;;;;;;;9.10;2.80;;;;;;;13.53;72.27;98603.09;80760;1295;3047863;-67
2023/10/20 08:31:12;;;;;;;8.40;3.10;;;;;;;14.09;70.21;98608.85;82047;1296;3012843;-66
2023/10/20 08:33:42;;;;;;;7.70;2.50;;;;;;;14.19;70.01;98608.70;81461;1295;3011201;-64
2023/10/20 08:36:12;;;;;;;4.50;2.10;;;;;;;14.24;69.94;98615.95;82056;1295;3013057;-67
2023/10/20 08:38:44;;;;;;;3.80;1.60;;;;;;;14.17;70.17;98613.75;80763;1298;3068902;-68
2023/10/20 08:41:15;;;;;;;12.00;3.10;;;;;;;14.14;70.49;98612.11;82053;1295;3012505;-71
2023/10/20 08:43:43;;;;;;;10.20;3.50;;;;;;;14.16;70.66;98614.61;80787;1295;3055555;-68
2023/10/20 08:46:11;;;;;;;9.40;3.10;;;;;;;14.22;70.47;98611.73;82014;1295;3012615;-68
2023/10/20 08:48:41;;;;;;;12.10;4.30;;;;;;;14.08;71.40;98614.67;82033;1295;3011339;-70
2023/10/20 08:51:10;;;;;;;14.50;6.60;;;;;;;14.11;71.57;98603.54;80798;1297;3051976;-66
2023/10/20 08:53:37;;;;;;;18.30;6.60;;;;;;;14.18;71.92;98594.70;82003;1295;3011056;-70
2023/10/20 08:56:04;;;;;;;16.50;7.20;;;;;;;14.18;72.29;98598.00;82061;1295;3011416;-66
2023/10/20 08:58:32;;;;;;;14.40;5.90;;;;;;;14.18;72.69;98592.59;80751;1295;3055837;-68
2023/10/20 09:00:59;;;;;;;9.60;5.30;;;;;;;14.27;73.25;98584.84;82053;1294;3011465;-65
2023/10/20 09:03:26;;;;;;;10.70;4.20;;;;;;;14.60;72.46;98590.05;82022;1295;3011117;-64
2023/10/20 09:06:07;;;;;;;13.00;4.20;;;;;;;14.82;71.62;98559.83;80760;1295;3026791;-71
2023/10/20 09:08:36;;;;;;;8.00;2.30;;;;;;;14.84;71.58;98571.95;80737;1295;3052064;-69
2023/10/20 09:11:05;;;;;;;9.00;2.90;;;;;;;14.93;71.41;98563.73;82059;1297;3012654;-63
2023/10/20 09:13:34;;;;;;;10.30;2.70;;;;;;;14.93;71.68;98549.33;80748;1298;3056245;-68
2023/10/20 09:16:03;;;;;;;11.10;2.40;;;;;;;15.01;71.67;98539.75;82015;1295;3012719;-65
2023/10/20 09:18:32;;;;;;;14.70;2.50;;;;;;;15.13;71.51;98545.70;81500;1295;3011446;-69
2023/10/20 09:21:05;;;;;;;11.00;2.90;;;;;;;15.20;71.25;98542.40;82056;1297;3011182;-68
2023/10/20 09:23:32;;;;;;;17.50;2.90;;;;;;;15.16;72.05;98540.93;80784;1295;3051261;-70
2023/10/20 09:25:59;;;;;;;11.40;3.80;;;;;;;15.19;72.13;98544.41;82042;1297;3013280;-71
2023/10/20 09:28:26;;;;;;;11.60;3.90;;;;;;;15.33;72.06;98537.99;82020;1295;3011179;-66
2023/10/20 09:30:59;;;;;;;12.00;4.20;;;;;;;15.21;72.56;98551.44;80787;1295;3025628;-72
2023/10/20 09:33:25;;;;;;;15.60;5.20;;;;;;;15.24;72.81;98546.41;81990;1293;3011457;-68
2023/10/20 09:35:53;;;;;;;32.60;5.10;;;;;;;15.67;71.64;98547.85;80766;1298;3049927;-67
2023/10/20 09:38:25;;;;;;;18.10;6.00;;;;;;;15.97;70.63;98538.23;82050;1299;3013151;-64
2023/10/20 09:41:07;;;;;;;15.70;6.60;;;;;;;15.85;71.06;98544.45;80804;1294;3069620;-65
2023/10/20 09:43:36;;;;;;;14.60;4.60;;;;;;;15.93;70.68;98528.05;80767;1295;3049750;-67
2023/10/20 09:46:26;;;;;;;19.60;5.90;;;;;;;15.87;70.97;98542.55;81961;1294;3012888;-67
2023/10/20 09:48:55;;;;;;;10.40;4.40;;;;;;;15.84;70.99;98536.31;80679;1297;3052008;-65
2023/10/20 09:51:21;;;;;;;7.90;3.00;;;;;;;15.75;71.55;98555.97;82002;1295;3012483;-67
2023/10/20 09:53:48;;;;;;;12.10;3.10;;;;;;;15.73;71.99;98544.55;81978;1294;3011263;-65
2023/10/20 09:56:16;;;;;;;8.50;2.50;;;;;;;15.74;71.91;98545.38;80701;1295;3069119;-72
2023/10/20 09:58:43;;;;;;;5.50;2.30;;;;;;;15.88;71.87;98532.17;81940;1295;3018851;-65
2023/10/20 10:01:13;;;;;;;7.60;2.10;;;;;;;15.77;71.98;98546.29;82022;1296;3011159;-66
2023/10/20 10:03:41;;;;;;;6.90;2.30;;;;;;;15.87;71.98;98534.27;80752;1295;3052692;-65
2023/10/20 10:06:09;;;;;;;9.60;2.50;;;;;;;16.02;71.56;98523.45;82036;1296;3012325;-69
2023/10/20 10:08:43;;;;;;;17.00;3.00;;;;;;;16.11;71.03;98552.01;82021;1298;3011264;-68
2023/10/20 10:11:43;;;;;;;12.60;4.50;;;;;;;16.25;70.70;98554.52;80726;1294;3069154;-63
2023/10/20 10:14:19;;;;;;;11.80;3.20;;;;;;;16.53;69.75;98547.89;80722;1298;3051398;-67
2023/10/20 10:16:53;;;;;;;8.40;2.60;;;;;;;16.73;68.74;98536.17;81488;1295;3011375;-67
2023/10/20 10:19:23;;;;;;;12.80;2.80;;;;;;;16.71;68.29;98553.20;82029;1294;3011117;-67
2023/10/20 10:21:56;;;;;;;8.50;2.50;;;;;;;16.65;68.50;98545.50;80781;1294;3048308;-65
2023/10/20 10:24:25;;;;;;;10.70;2.60;;;;;;;16.71;68.26;98531.64;82049;1294;3011589;-63
2023/10/20 10:26:53;;;;;;;13.70;2.40;;;;;;;16.72;67.98;98529.73;80781;1296;3050106;-67
2023/10/20 10:29:53;;;;;;;11.50;2.30;;;;;;;16.67;68.01;98527.05;82019;1298;3013201;-67
2023/10/20 10:32:21;;;;;;;9.00;2.20;;;;;;;16.59;68.39;98532.09;80782;1295;3069000;-67
2023/10/20 10:34:49;;;;;;;7.40;2.50;;;;;;;16.52;68.58;98532.98;82050;1295;3012411;-65
2023/10/20 10:37:16;;;;;;;15.00;2.10;;;;;;;16.53;68.17;98536.13;82032;1294;3011116;-67
2023/10/20 10:39:44;;;;;;;8.80;2.20;;;;;;;16.59;68.30;98538.13;80707;1298;3052218;-70
2023/10/20 10:42:11;;;;;;;6.60;2.50;;;;;;;16.66;68.34;98530.73;82078;1295;3013094;-70
2023/10/20 10:44:38;;;;;;;6.10;2.20;;;;;;;16.68;68.06;98533.11;82026;1294;3011560;-69
2023/10/20 10:47:06;;;;;;;13.90;2.80;;;;;;;16.73;68.07;98524.89;80750;1295;3027743;-67
2023/10/20 10:49:33;;;;;;;7.20;2.20;;;;;;;16.83;67.61;98504.97;82050;1295;3012840;-67
2023/10/20 10:52:07;;;;;;;10.20;3.10;;;;;;;16.87;67.59;98513.91;82016;1295;3011438;-69
2023/10/20 10:54:35;;;;;;;10.60;2.20;;;;;;;16.88;67.45;98516.15;80771;1295;3053238;-67
2023/10/20 10:57:02;;;;;;;9.30;2.30;;;;;;;16.93;67.55;98497.92;82027;1297;3018121;-69
2023/10/20 10:59:29;;;;;;;8.10;2.80;;;;;;;17.13;67.37;98486.31;82071;1294;3011475;-70
2023/10/20 11:02:00;;;;;;;6.00;1.70;;;;;;;17.19;66.93;98490.46;80786;1294;3068074;-68
2023/10/20 11:04:27;;;;;;;7.70;2.60;;;;;;;17.09;67.07;98489.18;81966;1295;3011345;-65
2023/10/20 11:06:56;;;;;;;6.80;2.30;;;;;;;17.19;67.15;98486.39;81429;1294;3011718;-66
2023/10/20 11:09:27;;;;;;;11.00;3.10;;;;;;;17.25;66.94;98482.82;81981;1295;3013125;-66
2023/10/20 11:11:56;;;;;;;8.10;2.20;;;;;;;17.21;66.89;98474.71;80758;1297;3051520;-67
2023/10/20 11:14:25;;;;;;;7.90;2.60;;;;;;;17.14;67.28;98483.58;82071;1298;3011407;-64
2023/10/20 11:16:54;;;;;;;11.50;2.30;;;;;;;17.14;67.23;98484.87;81512;1295;3011420;-64
2023/10/20 11:19:21;;;;;;;10.70;2.50;;;;;;;17.17;67.59;98472.14;82045;1295;3018141;-63
2023/10/20 11:21:49;;;;;;;12.80;2.80;;;;;;;17.06;67.77;98483.33;82037;1298;3011286;-66
2023/10/20 11:24:35;;;;;;;13.40;2.50;;;;;;;17.09;67.47;98473.13;80797;1294;3048003;-66
2023/10/20 11:27:08;;;;;;;6.80;2.50;;;;;;;17.13;67.74;98470.77;80791;1298;3053043;-64
2023/10/20 11:29:35;;;;;;;11.10;2.30;;;;;;;17.18;67.72;98459.64;82016;1294;3011938;-62
2023/10/20 11:32:13;;;;;;;12.20;2.30;;;;;;;17.10;67.91;98464.71;80773;1295;3051888;-62
2023/10/20 11:34:41;;;;;;;10.20;2.00;;;;;;;17.10;68.01;98448.06;80794;1297;3053675;-72
2023/10/20 11:37:08;;;;;;;11.50;2.40;;;;;;;17.08;68.19;98463.88;82074;1296;3012789;-65
2023/10/20 11:39:36;;;;;;;20.90;3.40;;;;;;;17.12;68.08;98464.02;82055;1294;3011664;-65
2023/10/20 11:42:04;;;;;;;12.60;2.80;;;;;;;17.23;68.02;98460.55;80783;1294;3049466;-65
2023/10/20 11:44:31;;;;;;;12.10;2.70;;;;;;;17.22;67.96;98453.77;82046;1295;3013005;-67
2023/10/20 11:46:57;;;;;;;6.30;1.90;;;;;;;17.11;68.16;98454.50;82047;1294;3011338;-65
2023/10/20 11:49:25;;;;;;;10.90;2.30;;;;;;;17.18;68.45;98448.14;80813;1295;3026257;-64
2023/10/20 11:51:52;;;;;;;8.40;2.30;;;;;;;17.22;68.11;98442.92;82076;1294;3018726;-69
2023/10/20 11:54:18;;;;;;;9.40;1.90;;;;;;;17.19;68.48;98448.77;81931;1294;3011346;-66
2023/10/20 11:56:47;;;;;;;7.20;1.80;;;;;;;17.16;68.47;98433.45;80778;1294;3026353;-65
2023/10/20 11:59:13;;;;;;;12.20;2.30;;;;;;;17.29;68.59;98423.47;82063;1295;3011087;-65